Time;durP1;ratioP1;P1;durP2;ratioP2;P2;SDS_P1;SDS_P2;PMS_P1;PMS_P2;Temp;Humidity;BMP_temperature;BMP_pressure;BME280_temperature;BME280_humidity;BME280_pressure;Samples;Min_cycle;Max_cycle;Signal;HPM_P1;HPM_P2
2024/01/30 00:01:26;;;;;;;24.30;14.43;;;;;;;2.36;77.13;102112.06;5071280;28;20574;-59
2024/01/30 00:03:56;;;;;;;24.67;14.77;;;;;;;2.34;76.79;102110.22;5067095;28;20198;-58
2024/01/30 00:06:24;;;;;;;27.57;13.67;;;;;;;2.37;76.81;102111.28;5072584;28;20209;-58
2024/01/30 00:08:53;;;;;;;26.13;15.00;;;;;;;2.36;76.52;102104.44;5071139;28;20201;-58
2024/01/30 00:11:21;;;;;;;28.80;15.27;;;;;;;2.36;77.09;102098.47;5071020;28;20206;-57
2024/01/30 00:13:49;;;;;;;23.30;14.23;;;;;;;2.35;76.95;102104.34;5068154;28;20220;-56
2024/01/30 00:16:26;;;;;;;24.87;14.93;;;;;;;2.32;77.17;102102.53;5061631;28;20618;-56
2024/01/30 00:18:56;;;;;;;25.67;15.10;;;;;;;2.30;77.17;102093.91;5067734;28;20201;-58
2024/01/30 00:21:24;;;;;;;26.27;16.20;;;;;;;2.31;77.48;102102.41;5064410;28;20597;-57
2024/01/30 00:23:52;;;;;;;26.70;14.37;;;;;;;2.32;76.43;102097.44;5068680;28;20212;-59
2024/01/30 00:26:20;;;;;;;29.20;15.50;;;;;;;2.32;77.30;102087.25;5069392;28;20193;-58
2024/01/30 00:28:48;;;;;;;24.10;14.60;;;;;;;2.29;77.36;102092.19;5067520;28;20566;-58
2024/01/30 00:31:16;;;;;;;27.27;15.00;;;;;;;2.30;76.64;102091.38;5070926;28;20205;-59
2024/01/30 00:33:44;;;;;;;24.00;14.50;;;;;;;2.31;76.06;102089.69;5070834;28;20631;-59
2024/01/30 00:36:14;;;;;;;29.57;15.33;;;;;;;2.30;76.96;102083.75;5070661;28;20258;-58
2024/01/30 00:38:41;;;;;;;23.40;14.60;;;;;;;2.31;76.00;102093.13;5070938;28;20284;-59
2024/01/30 00:41:10;;;;;;;28.73;15.33;;;;;;;2.31;76.30;102085.47;5067104;28;20731;-54
2024/01/30 00:43:38;;;;;;;31.83;15.63;;;;;;;2.31;76.46;102082.94;5067413;28;20284;-57
2024/01/30 00:46:06;;;;;;;28.90;15.33;;;;;;;2.31;76.35;102095.66;5066326;28;20575;-63
2024/01/30 00:48:34;;;;;;;26.47;15.73;;;;;;;2.29;76.10;102096.38;5070634;28;20246;-58
2024/01/30 00:51:02;;;;;;;26.27;14.80;;;;;;;2.25;76.30;102089.38;5075650;28;20603;-57
2024/01/30 00:53:31;;;;;;;25.30;15.43;;;;;;;2.23;76.14;102085.88;5070468;28;20205;-57
2024/01/30 00:55:59;;;;;;;29.57;16.50;;;;;;;2.21;76.68;102097.59;5070103;28;20225;-58
2024/01/30 00:58:27;;;;;;;27.23;15.50;;;;;;;2.17;76.40;102089.84;5069560;28;20233;-58
2024/01/30 01:00:55;;;;;;;28.43;15.60;;;;;;;2.15;77.27;102093.06;5067344;28;20207;-57
2024/01/30 01:03:23;;;;;;;32.33;15.93;;;;;;;2.13;76.27;102089.56;5067276;28;20228;-58
2024/01/30 01:05:51;;;;;;;27.17;15.57;;;;;;;2.11;76.64;102088.63;5074634;28;20205;-57
2024/01/30 01:08:20;;;;;;;25.90;16.03;;;;;;;2.09;76.71;102092.72;5074648;28;20201;-58
2024/01/30 01:10:49;;;;;;;29.43;16.50;;;;;;;2.05;77.50;102101.84;5076619;28;20741;-56
2024/01/30 01:13:17;;;;;;;24.37;15.63;;;;;;;2.05;76.73;102100.97;5074290;28;20547;-58
2024/01/30 01:15:45;;;;;;;27.23;15.50;;;;;;;2.01;77.56;102101.59;5074102;28;20223;-57
2024/01/30 01:18:13;;;;;;;28.73;15.43;;;;;;;2.00;77.72;102102.41;5063930;28;20263;-58
2024/01/30 01:20:41;;;;;;;28.63;16.20;;;;;;;1.98;76.93;102096.34;5071732;28;20564;-57
2024/01/30 01:23:09;;;;;;;26.47;15.97;;;;;;;1.96;77.03;102098.81;5074649;28;20229;-57
2024/01/30 01:25:37;;;;;;;26.93;16.33;;;;;;;1.94;77.93;102102.91;5072901;28;20205;-58
2024/01/30 01:28:07;;;;;;;26.97;16.50;;;;;;;1.92;78.13;102101.97;5073015;28;20209;-60
2024/01/30 01:30:35;;;;;;;27.23;14.60;;;;;;;1.88;78.25;102098.38;5071102;28;20244;-59
2024/01/30 01:33:03;;;;;;;27.17;16.00;;;;;;;1.86;78.37;102096.53;5063821;28;20645;-58
2024/01/30 01:35:31;;;;;;;28.43;15.57;;;;;;;1.85;77.41;102094.78;5058931;28;20214;-59
2024/01/30 01:38:00;;;;;;;28.37;15.57;;;;;;;1.82;78.59;102087.84;5071499;28;20209;-57
2024/01/30 01:40:28;;;;;;;26.57;15.23;;;;;;;1.83;78.27;102089.59;5073824;28;20231;-57
2024/01/30 01:42:57;;;;;;;27.83;16.30;;;;;;;1.82;78.75;102077.69;5074007;28;20732;-58
2024/01/30 01:45:26;;;;;;;29.63;15.83;;;;;;;1.84;77.88;102085.38;5073613;28;20236;-57
2024/01/30 01:47:54;;;;;;;29.83;16.13;;;;;;;1.84;78.16;102082.84;5073665;28;20656;-58
2024/01/30 01:50:23;;;;;;;30.33;16.00;;;;;;;1.81;78.59;102068.31;5073587;28;20237;-57
2024/01/30 01:52:53;;;;;;;28.63;17.23;;;;;;;1.83;78.07;102073.47;5068725;28;20219;-56
2024/01/30 01:55:24;;;;;;;27.33;14.77;;;;;;;1.82;78.50;102071.72;5072008;28;20673;-58
2024/01/30 01:57:53;;;;;;;27.47;15.73;;;;;;;1.84;77.85;102068.50;5073684;28;20255;-58
2024/01/30 02:00:22;;;;;;;28.43;15.73;;;;;;;1.86;78.46;102058.41;5073660;28;20649;-58
2024/01/30 02:02:54;;;;;;;26.67;15.73;;;;;;;1.86;78.39;102056.72;5073353;28;20229;-55
2024/01/30 02:05:22;;;;;;;24.87;15.53;;;;;;;1.90;78.41;102058.66;5070695;28;20207;-55
2024/01/30 02:07:51;;;;;;;28.83;16.27;;;;;;;1.91;77.40;102062.97;5073462;28;20201;-56
2024/01/30 02:10:20;;;;;;;24.87;15.23;;;;;;;1.91;77.33;102047.72;5066969;28;20201;-58
2024/01/30 02:12:48;;;;;;;26.10;15.67;;;;;;;1.93;78.23;102056.28;5070092;28;20247;-58
2024/01/30 02:17:52;;;;;;;28.80;15.17;;;;;;;1.95;77.89;102048.72;5127827;22;20750;-62
2024/01/30 02:20:20;;;;;;;26.93;15.40;;;;;;;1.96;77.75;102052.19;5009059;28;20620;-59
2024/01/30 02:22:50;;;;;;;25.33;15.23;;;;;;;1.95;77.57;102043.66;5007297;28;20643;-58
2024/01/30 02:25:18;;;;;;;28.13;15.33;;;;;;;1.93;77.13;102038.50;5011316;28;20207;-58
2024/01/30 02:27:46;;;;;;;24.53;14.77;;;;;;;1.93;76.95;102046.13;5005570;28;20726;-58
2024/01/30 02:30:14;;;;;;;23.80;14.43;;;;;;;1.95;77.03;102053.81;5011604;28;20302;-60
2024/01/30 02:32:42;;;;;;;25.90;15.20;;;;;;;1.96;77.64;102044.56;5018088;28;20257;-59
2024/01/30 02:35:10;;;;;;;26.73;14.13;;;;;;;1.97;77.23;102049.72;5016574;28;20235;-60
2024/01/30 02:37:38;;;;;;;23.80;14.53;;;;;;;1.96;76.74;102049.63;5009682;28;20220;-59
2024/01/30 02:40:08;;;;;;;23.47;14.33;;;;;;;1.95;77.35;102046.19;5011270;28;20207;-59
2024/01/30 02:42:36;;;;;;;24.60;14.60;;;;;;;1.95;77.51;102056.34;5011527;28;20207;-60
2024/01/30 02:45:05;;;;;;;25.87;14.53;;;;;;;1.94;77.48;102052.94;5012978;28;20235;-60
2024/01/30 02:47:32;;;;;;;27.43;15.40;;;;;;;1.93;76.92;102050.31;5013312;28;20214;-59
2024/01/30 02:50:00;;;;;;;26.90;14.13;;;;;;;1.91;76.94;102057.88;5019153;28;20662;-59
2024/01/30 02:52:29;;;;;;;25.70;15.27;;;;;;;1.93;76.93;102052.88;5006226;28;20634;-59
2024/01/30 02:54:57;;;;;;;24.60;14.47;;;;;;;1.92;77.22;102053.66;5005740;28;20563;-59
2024/01/30 02:57:26;;;;;;;23.47;14.13;;;;;;;1.92;76.98;102058.75;5005576;28;20226;-59
2024/01/30 02:59:54;;;;;;;26.67;14.27;;;;;;;1.90;76.99;102050.16;5013399;28;20207;-60
2024/01/30 03:02:22;;;;;;;26.47;15.03;;;;;;;1.87;76.88;102055.94;5012862;28;20227;-59
2024/01/30 03:04:49;;;;;;;24.37;14.47;;;;;;;1.83;76.29;102048.94;5012880;28;20207;-58
2024/01/30 03:07:17;;;;;;;26.40;14.97;;;;;;;1.84;77.30;102049.81;5014447;28;20261;-59
2024/01/30 03:09:45;;;;;;;22.77;14.23;;;;;;;1.84;77.20;102044.72;5015409;28;20203;-59
2024/01/30 03:12:13;;;;;;;25.87;14.17;;;;;;;1.82;76.44;102054.81;5013227;28;20563;-59
2024/01/30 03:14:42;;;;;;;24.90;13.83;;;;;;;1.83;76.30;102050.59;5007928;28;20214;-59
2024/01/30 03:17:10;;;;;;;25.27;13.83;;;;;;;1.83;76.98;102053.13;5004709;28;20239;-58
2024/01/30 03:19:38;;;;;;;25.40;14.73;;;;;;;1.79;76.65;102049.56;5012942;28;20199;-59
2024/01/30 03:22:06;;;;;;;25.43;14.50;;;;;;;1.81;76.67;102047.13;5007332;28;20257;-60
2024/01/30 03:24:34;;;;;;;25.07;14.47;;;;;;;1.78;76.65;102050.34;5013645;28;20203;-59
2024/01/30 03:27:02;;;;;;;23.00;14.60;;;;;;;1.79;76.72;102057.19;5015866;28;20587;-61
2024/01/30 03:29:30;;;;;;;24.67;14.47;;;;;;;1.75;76.96;102045.09;5012170;28;20242;-60
2024/01/30 03:31:59;;;;;;;25.63;15.07;;;;;;;1.73;76.65;102051.78;5004641;28;20686;-61
2024/01/30 03:34:27;;;;;;;24.50;14.43;;;;;;;1.71;76.36;102050.78;5005666;28;20207;-60
2024/01/30 03:36:55;;;;;;;25.97;14.63;;;;;;;1.69;76.61;102049.81;5008096;28;20215;-63
2024/01/30 03:39:25;;;;;;;26.20;14.13;;;;;;;1.67;76.15;102041.25;5013497;28;20626;-62
2024/01/30 03:41:53;;;;;;;26.83;14.63;;;;;;;1.65;76.21;102041.13;5010935;28;20206;-62
2024/01/30 03:44:21;;;;;;;23.40;14.10;;;;;;;1.64;77.11;102041.94;5014778;28;20203;-64
2024/01/30 03:46:49;;;;;;;25.83;13.63;;;;;;;1.64;76.72;102047.03;5010646;28;20200;-61
2024/01/30 03:49:18;;;;;;;21.40;12.83;;;;;;;1.65;76.52;102050.44;5002142;28;20214;-60
2024/01/30 03:51:47;;;;;;;26.10;14.23;;;;;;;1.63;76.71;102049.50;5007092;28;20195;-60
2024/01/30 03:54:16;;;;;;;27.57;15.00;;;;;;;1.63;76.05;102037.66;5002370;28;20671;-59
2024/01/30 03:56:43;;;;;;;25.77;14.60;;;;;;;1.63;76.22;102034.25;5009813;28;20226;-60
2024/01/30 03:59:11;;;;;;;25.83;14.67;;;;;;;1.62;77.09;102037.56;5012005;28;20230;-63
2024/01/30 04:01:39;;;;;;;29.13;14.27;;;;;;;1.61;76.65;102035.81;5003929;28;20796;-64
2024/01/30 04:04:07;;;;;;;25.57;14.20;;;;;;;1.58;76.64;102035.63;5002270;28;20204;-68
2024/01/30 04:06:37;;;;;;;23.80;14.13;;;;;;;1.57;77.03;102037.28;5008695;28;20558;-61
2024/01/30 04:09:05;;;;;;;25.87;13.60;;;;;;;1.58;76.66;102035.63;5006952;28;20195;-62
2024/01/30 04:11:33;;;;;;;26.80;15.83;;;;;;;1.57;76.98;102031.34;5006243;28;20237;-60
2024/01/30 04:14:01;;;;;;;25.33;14.43;;;;;;;1.57;76.98;102038.97;5010071;28;20226;-61
2024/01/30 04:16:29;;;;;;;23.03;13.57;;;;;;;1.54;76.40;102033.69;5004419;28;20235;-62
2024/01/30 04:18:57;;;;;;;25.60;13.97;;;;;;;1.54;76.70;102038.78;5007067;28;20306;-61
2024/01/30 04:21:25;;;;;;;24.17;14.73;;;;;;;1.53;76.11;102032.84;5016858;28;20206;-60
2024/01/30 04:23:54;;;;;;;29.17;15.17;;;;;;;1.54;76.66;102038.78;5009094;28;20290;-62
2024/01/30 04:26:22;;;;;;;24.47;14.30;;;;;;;1.53;76.98;102035.38;5008998;28;20218;-61
2024/01/30 04:28:50;;;;;;;29.53;14.70;;;;;;;1.55;75.95;102055.81;5004633;28;20207;-61
2024/01/30 04:31:18;;;;;;;25.60;14.40;;;;;;;1.53;75.71;102047.22;5007324;28;20242;-62
2024/01/30 04:33:46;;;;;;;24.63;13.97;;;;;;;1.50;76.88;102047.03;5006552;28;20257;-64
2024/01/30 04:36:14;;;;;;;24.07;14.93;;;;;;;1.47;77.09;102040.09;5006331;28;20283;-64
2024/01/30 04:38:42;;;;;;;23.67;13.13;;;;;;;1.46;76.02;102038.34;5004837;28;20600;-63
2024/01/30 04:41:11;;;;;;;23.00;13.73;;;;;;;1.43;75.95;102033.97;5009906;28;20546;-64
2024/01/30 04:43:39;;;;;;;26.57;13.63;;;;;;;1.41;76.35;102034.69;5008708;28;20209;-62
2024/01/30 04:46:07;;;;;;;24.20;13.77;;;;;;;1.40;77.05;102030.38;5001524;28;20290;-65
2024/01/30 04:48:35;;;;;;;22.50;13.20;;;;;;;1.40;76.88;102033.81;5008683;28;20210;-63
2024/01/30 04:51:04;;;;;;;25.17;13.50;;;;;;;1.39;76.10;102034.56;5011266;28;20211;-63
2024/01/30 04:53:32;;;;;;;22.73;13.10;;;;;;;1.39;76.55;102026.97;5008155;28;20661;-62
2024/01/30 04:56:00;;;;;;;26.03;14.43;;;;;;;1.42;76.10;102031.34;5016645;28;20207;-62
2024/01/30 04:58:29;;;;;;;26.03;13.40;;;;;;;1.41;76.30;102032.16;5002559;28;20250;-62
2024/01/30 05:00:57;;;;;;;23.83;13.90;;;;;;;1.43;76.82;102028.00;5008195;28;20650;-62
2024/01/30 05:03:25;;;;;;;23.20;13.03;;;;;;;1.42;76.02;102023.72;5005794;28;20226;-63
2024/01/30 05:05:53;;;;;;;28.03;14.37;;;;;;;1.42;76.70;102027.13;5003277;28;20226;-63
2024/01/30 05:08:21;;;;;;;22.53;13.53;;;;;;;1.42;75.68;102024.59;5004143;28;20210;-65
2024/01/30 05:10:49;;;;;;;25.80;14.13;;;;;;;1.43;76.09;102033.09;5008089;28;20278;-62
2024/01/30 05:13:17;;;;;;;25.87;14.33;;;;;;;1.42;75.89;102029.69;5001590;28;20203;-63
2024/01/30 05:15:46;;;;;;;24.77;14.83;;;;;;;1.41;76.13;102025.41;5012430;28;20211;-63
2024/01/30 05:18:14;;;;;;;25.17;14.10;;;;;;;1.42;76.02;102027.13;5006563;28;20219;-66
2024/01/30 05:20:43;;;;;;;24.73;13.60;;;;;;;1.40;76.39;102021.13;5011556;28;20230;-58
2024/01/30 05:23:10;;;;;;;22.40;13.03;;;;;;;1.43;75.91;102025.47;5004880;28;20203;-62
2024/01/30 05:25:38;;;;;;;25.03;13.67;;;;;;;1.42;75.34;102018.66;5008719;28;20203;-62
2024/01/30 05:28:07;;;;;;;23.10;14.23;;;;;;;1.42;75.36;102026.25;5009312;28;20214;-58
2024/01/30 05:30:35;;;;;;;24.83;13.43;;;;;;;1.42;76.05;102024.59;5004353;28;20203;-58
2024/01/30 05:33:04;;;;;;;25.37;13.33;;;;;;;1.43;75.35;102020.38;5007609;28;20211;-58
2024/01/30 05:35:32;;;;;;;24.97;13.73;;;;;;;1.41;75.86;102030.47;5015568;28;20215;-58
2024/01/30 05:38:00;;;;;;;23.90;13.47;;;;;;;1.39;75.61;102023.53;5004361;28;20227;-59
2024/01/30 05:40:28;;;;;;;23.50;14.27;;;;;;;1.37;75.62;102028.56;5004488;28;20535;-60
2024/01/30 05:42:58;;;;;;;22.77;13.17;;;;;;;1.37;75.73;102028.56;5010497;28;20298;-62
2024/01/30 05:45:26;;;;;;;24.43;14.17;;;;;;;1.33;75.25;102041.88;5001065;28;20229;-58
2024/01/30 05:47:54;;;;;;;26.57;13.73;;;;;;;1.33;75.30;102034.25;5013308;28;20245;-58
2024/01/30 05:50:25;;;;;;;22.90;13.10;;;;;;;1.33;75.54;102035.91;5010051;28;20261;-57
2024/01/30 05:52:53;;;;;;;21.60;12.87;;;;;;;1.31;75.71;102030.72;5013169;28;20208;-58
2024/01/30 05:55:21;;;;;;;26.43;13.77;;;;;;;1.29;76.37;102026.34;5011479;28;20203;-64
2024/01/30 05:57:49;;;;;;;24.37;13.73;;;;;;;1.26;76.09;102026.19;5009624;28;20685;-58
2024/01/30 06:00:18;;;;;;;23.97;13.80;;;;;;;1.28;76.36;102028.00;5013157;28;20207;-59
2024/01/30 06:02:46;;;;;;;22.50;13.07;;;;;;;1.30;76.05;102028.97;5011209;28;20208;-58
2024/01/30 06:05:14;;;;;;;24.80;14.00;;;;;;;1.31;76.02;102030.72;5013276;28;20307;-61
2024/01/30 06:07:43;;;;;;;25.27;13.13;;;;;;;1.33;75.55;102023.22;5011290;28;20203;-62
2024/01/30 06:10:11;;;;;;;23.53;14.13;;;;;;;1.34;75.65;102025.84;5012803;28;20578;-60
2024/01/30 06:12:41;;;;;;;24.40;13.07;;;;;;;1.32;75.48;102019.78;5010056;28;20289;-63
2024/01/30 06:15:09;;;;;;;27.33;13.73;;;;;;;1.32;75.24;102019.78;5010738;28;20218;-59
2024/01/30 06:17:37;;;;;;;24.60;13.17;;;;;;;1.34;75.06;102017.34;5012573;28;20258;-61
2024/01/30 06:20:07;;;;;;;26.00;13.83;;;;;;;1.36;75.84;102021.72;5014053;28;20200;-58
2024/01/30 06:22:35;;;;;;;24.10;13.57;;;;;;;1.39;74.99;102019.34;5014385;28;20632;-59
2024/01/30 06:25:05;;;;;;;25.90;13.37;;;;;;;1.42;75.03;102024.59;5012406;28;20211;-58
2024/01/30 06:27:33;;;;;;;20.93;11.97;;;;;;;1.44;75.37;102024.72;5009673;28;20218;-59
2024/01/30 06:30:02;;;;;;;27.07;14.27;;;;;;;1.43;74.91;102021.25;5021880;28;20211;-60
2024/01/30 06:32:34;;;;;;;28.10;13.93;;;;;;;1.45;74.41;102029.84;5013734;28;20400;-58
2024/01/30 06:35:02;;;;;;;26.77;14.30;;;;;;;1.44;75.12;102025.56;5005755;28;20226;-58
2024/01/30 06:37:30;;;;;;;25.23;14.20;;;;;;;1.44;74.51;102028.13;5010903;28;20206;-59
2024/01/30 06:39:58;;;;;;;25.27;13.13;;;;;;;1.44;74.33;102028.13;5011586;28;20215;-60
2024/01/30 06:42:27;;;;;;;29.50;13.27;;;;;;;1.46;75.14;102038.34;5017166;28;20594;-60
2024/01/30 06:44:55;;;;;;;25.60;13.93;;;;;;;1.45;74.38;102034.94;5011308;28;20654;-59
2024/01/30 06:47:22;;;;;;;25.80;14.37;;;;;;;1.44;75.01;102035.72;5003826;28;20775;-62
2024/01/30 06:49:50;;;;;;;26.20;14.57;;;;;;;1.40;74.54;102023.66;5009124;28;20225;-61
2024/01/30 06:52:18;;;;;;;20.00;12.83;;;;;;;1.40;74.40;102028.72;5011794;28;20573;-60
2024/01/30 06:54:46;;;;;;;26.10;14.03;;;;;;;1.41;74.98;102030.47;5005240;28;20200;-61
2024/01/30 06:57:14;;;;;;;27.27;13.90;;;;;;;1.41;74.22;102035.56;5005435;28;20258;-59
2024/01/30 06:59:43;;;;;;;20.97;13.03;;;;;;;1.41;75.01;102025.41;5007926;28;20215;-58
2024/01/30 07:02:12;;;;;;;21.63;13.23;;;;;;;1.41;74.32;102035.56;5010146;28;20246;-65
2024/01/30 07:04:41;;;;;;;25.47;14.10;;;;;;;1.43;74.66;102046.66;5010396;28;20211;-61
2024/01/30 07:07:14;;;;;;;25.20;13.60;;;;;;;1.44;74.68;102039.94;5010117;28;20207;-60
2024/01/30 07:09:43;;;;;;;23.50;13.57;;;;;;;1.45;74.82;102034.94;5004960;28;20195;-63
2024/01/30 07:12:11;;;;;;;25.07;14.07;;;;;;;1.44;74.41;102035.72;5013844;28;20199;-57
2024/01/30 07:14:39;;;;;;;23.27;13.23;;;;;;;1.49;74.11;102040.19;5006299;28;20246;-58
2024/01/30 07:17:08;;;;;;;29.93;14.87;;;;;;;1.50;74.70;102034.31;5008649;28;20326;-59
2024/01/30 07:19:36;;;;;;;29.37;14.57;;;;;;;1.51;74.42;102036.97;5013629;28;20720;-66
2024/01/30 07:22:05;;;;;;;23.70;14.23;;;;;;;1.55;73.40;102043.09;5006499;28;20211;-60
2024/01/30 07:24:33;;;;;;;23.30;13.40;;;;;;;1.56;74.34;102047.38;5013447;28;20206;-59
2024/01/30 07:27:01;;;;;;;28.47;13.57;;;;;;;1.60;74.33;102044.22;5013389;28;20211;-57
2024/01/30 07:29:28;;;;;;;23.87;13.60;;;;;;;1.64;74.07;102047.03;5013393;28;20547;-57
2024/01/30 07:31:56;;;;;;;26.57;13.37;;;;;;;1.69;73.30;102049.81;5009942;28;20215;-60
2024/01/30 07:34:27;;;;;;;23.23;13.93;;;;;;;1.74;73.63;102050.97;5018181;28;20666;-59
2024/01/30 07:36:55;;;;;;;23.60;13.87;;;;;;;1.75;73.01;102040.00;5013040;28;20203;-58
2024/01/30 07:39:23;;;;;;;23.90;13.77;;;;;;;1.77;72.95;102040.06;5009061;28;20724;-60
2024/01/30 07:41:51;;;;;;;24.53;13.80;;;;;;;1.81;72.83;102044.56;5012512;28;20721;-60
2024/01/30 07:44:19;;;;;;;26.87;14.27;;;;;;;1.83;72.55;102054.00;5019250;28;20729;-59
2024/01/30 07:46:47;;;;;;;21.77;12.97;;;;;;;1.85;73.08;102052.44;5012803;28;20210;-60
2024/01/30 07:49:15;;;;;;;25.73;14.07;;;;;;;1.88;72.63;102039.91;5019061;28;20205;-59
2024/01/30 07:51:45;;;;;;;26.93;14.13;;;;;;;1.93;72.90;102041.03;5003052;28;20234;-59
2024/01/30 07:54:13;;;;;;;25.17;13.37;;;;;;;2.01;72.22;102040.59;5012948;28;20606;-60
2024/01/30 07:56:41;;;;;;;27.63;14.17;;;;;;;2.05;71.91;102043.38;5010359;28;20239;-60
2024/01/30 07:59:10;;;;;;;27.70;13.03;;;;;;;2.06;71.74;102036.63;5011341;28;20262;-62
2024/01/30 08:01:38;;;;;;;24.07;13.53;;;;;;;2.07;72.29;102041.81;5010554;28;20225;-62
2024/01/30 08:04:07;;;;;;;24.47;12.30;;;;;;;2.10;72.55;102041.06;5010520;28;20291;-65
2024/01/30 08:06:35;;;;;;;20.40;12.70;;;;;;;2.14;71.97;102041.34;5008815;28;20215;-62
2024/01/30 08:09:04;;;;;;;22.90;14.00;;;;;;;2.17;71.55;102045.69;5013114;28;20235;-63
2024/01/30 08:11:32;;;;;;;22.63;12.87;;;;;;;2.21;70.83;102042.56;5014398;28;20658;-63
2024/01/30 08:14:00;;;;;;;28.07;13.23;;;;;;;2.24;70.55;102041.84;5017811;28;20207;-63
2024/01/30 08:16:28;;;;;;;23.43;13.33;;;;;;;2.25;71.42;102039.38;5017637;28;20243;-61
2024/01/30 08:18:57;;;;;;;23.57;12.53;;;;;;;2.29;70.51;102030.25;5010434;28;20270;-62
2024/01/30 08:21:25;;;;;;;21.77;13.43;;;;;;;2.30;70.18;102037.97;5012645;28;20214;-62
2024/01/30 08:23:54;;;;;;;23.33;12.40;;;;;;;2.32;70.74;102031.31;5011991;28;20273;-65
2024/01/30 08:26:23;;;;;;;21.27;12.77;;;;;;;2.30;70.48;102032.00;5012179;28;20265;-62
2024/01/30 08:28:53;;;;;;;23.93;13.80;;;;;;;2.32;70.89;102020.22;5002799;28;20207;-63
2024/01/30 08:31:21;;;;;;;23.23;12.87;;;;;;;2.34;70.79;102019.53;5009595;28;20286;-62
2024/01/30 08:33:49;;;;;;;25.00;13.10;;;;;;;2.34;70.85;102022.06;5015539;28;20231;-63
2024/01/30 08:36:18;;;;;;;22.27;13.10;;;;;;;2.36;71.00;102019.63;5012965;28;20207;-62
2024/01/30 08:38:46;;;;;;;24.73;13.10;;;;;;;2.37;70.02;102018.81;5010213;28;20203;-61
2024/01/30 08:41:14;;;;;;;27.77;13.70;;;;;;;2.40;70.89;102019.84;5008489;28;20253;-65
2024/01/30 08:43:44;;;;;;;23.33;13.53;;;;;;;2.43;70.82;102029.34;5010685;28;20219;-63
2024/01/30 08:46:12;;;;;;;22.83;12.80;;;;;;;2.46;70.73;102016.75;5011102;28;20207;-64
2024/01/30 08:48:42;;;;;;;24.80;12.67;;;;;;;2.51;70.36;102025.53;5003918;28;20200;-63
2024/01/30 08:51:10;;;;;;;25.47;13.00;;;;;;;2.54;70.32;102029.88;5012790;28;20250;-64
2024/01/30 08:53:38;;;;;;;24.17;13.13;;;;;;;2.59;70.09;102031.88;5013323;28;20225;-63
2024/01/30 08:56:07;;;;;;;26.17;11.93;;;;;;;2.63;70.75;102030.38;5013180;28;20293;-61
2024/01/30 08:58:35;;;;;;;22.03;13.50;;;;;;;2.69;70.06;102027.25;4999194;28;20673;-62
2024/01/30 09:01:06;;;;;;;23.67;12.70;;;;;;;2.74;70.71;102020.75;5015597;28;20211;-64
2024/01/30 09:03:34;;;;;;;19.50;11.93;;;;;;;2.79;70.43;102020.19;5005539;28;20573;-62
2024/01/30 09:06:02;;;;;;;24.43;13.67;;;;;;;2.84;70.55;102023.00;5002770;28;20658;-63
2024/01/30 09:08:30;;;;;;;23.40;12.57;;;;;;;2.92;69.41;102024.25;5000226;28;20298;-61
2024/01/30 09:10:58;;;;;;;19.97;12.23;;;;;;;2.97;69.79;102029.56;5010745;28;20211;-61
2024/01/30 09:13:26;;;;;;;20.00;11.70;;;;;;;3.03;69.52;102029.91;5004197;28;20200;-60
2024/01/30 09:15:55;;;;;;;21.30;11.60;;;;;;;3.09;68.71;102026.00;5004673;28;20732;-61
2024/01/30 09:18:27;;;;;;;21.00;12.00;;;;;;;3.15;69.11;102015.22;5008246;28;20718;-61
2024/01/30 09:20:55;;;;;;;20.90;12.07;;;;;;;3.25;68.76;102017.44;5003885;28;20219;-61
2024/01/30 09:23:23;;;;;;;17.90;10.53;;;;;;;3.32;68.61;102014.41;5006746;28;20207;-59
2024/01/30 09:25:51;;;;;;;21.30;11.10;;;;;;;3.38;68.39;102019.78;5012359;28;20649;-64
2024/01/30 09:28:19;;;;;;;20.50;11.43;;;;;;;3.47;68.17;102015.97;5021348;28;20649;-61
2024/01/30 09:30:48;;;;;;;19.10;11.40;;;;;;;3.52;67.51;102020.47;5013782;28;20202;-62
2024/01/30 09:33:17;;;;;;;18.37;10.63;;;;;;;3.57;66.63;102019.03;5017890;28;20215;-65
2024/01/30 09:35:46;;;;;;;18.87;10.80;;;;;;;3.62;66.20;102015.03;5016334;28;20573;-60
2024/01/30 09:38:14;;;;;;;18.33;9.63;;;;;;;3.69;66.51;102000.91;5011304;28;20561;-61
2024/01/30 09:40:42;;;;;;;18.53;11.20;;;;;;;3.76;66.03;102002.94;5001317;28;20760;-61
2024/01/30 09:43:18;;;;;;;17.20;9.80;;;;;;;3.81;65.44;102001.47;5010166;28;20219;-62
2024/01/30 09:45:47;;;;;;;16.83;9.43;;;;;;;3.86;65.45;101997.44;5010016;28;20664;-62
2024/01/30 09:48:16;;;;;;;16.17;9.47;;;;;;;3.94;65.14;101996.94;5013451;28;20207;-63
2024/01/30 09:50:45;;;;;;;14.80;9.13;;;;;;;4.01;64.88;101994.75;5008349;28;20654;-61
2024/01/30 09:53:15;;;;;;;23.17;8.57;;;;;;;4.08;64.35;102001.88;5009692;28;20637;-62
2024/01/30 09:55:44;;;;;;;16.90;9.50;;;;;;;4.13;64.22;101999.56;5012567;28;20657;-61
2024/01/30 09:58:14;;;;;;;20.80;9.20;;;;;;;4.22;64.26;101994.84;5005849;28;20621;-63
2024/01/30 10:00:42;;;;;;;16.63;9.70;;;;;;;4.27;63.99;101988.31;5010802;28;20230;-60
2024/01/30 10:03:10;;;;;;;20.53;9.77;;;;;;;4.34;63.72;101994.53;5011264;28;20212;-62
2024/01/30 10:05:41;;;;;;;15.87;8.60;;;;;;;4.40;63.27;101993.94;5008928;28;20204;-62
2024/01/30 10:08:10;;;;;;;13.60;8.40;;;;;;;4.45;62.49;101988.22;5012905;28;20211;-60
2024/01/30 10:10:38;;;;;;;16.30;9.07;;;;;;;4.50;62.12;101985.91;5008738;28;20207;-60
2024/01/30 10:13:06;;;;;;;15.27;8.70;;;;;;;4.54;61.93;101982.69;5023580;28;20264;-60
2024/01/30 10:15:35;;;;;;;16.97;9.83;;;;;;;4.58;62.05;101982.00;5008552;28;20199;-61
2024/01/30 10:18:06;;;;;;;18.10;9.33;;;;;;;4.58;62.15;101969.25;5013365;28;20616;-65
2024/01/30 10:20:35;;;;;;;15.10;9.20;;;;;;;4.67;61.77;101971.31;5008827;28;20234;-62
2024/01/30 10:23:03;;;;;;;16.37;9.13;;;;;;;4.71;61.05;101970.63;5007533;28;20262;-62
2024/01/30 10:25:33;;;;;;;13.50;8.60;;;;;;;4.75;61.03;101973.41;5015894;28;20213;-61
2024/01/30 10:28:01;;;;;;;15.13;9.80;;;;;;;4.80;61.51;101971.03;5014703;28;20207;-62
2024/01/30 10:30:29;;;;;;;16.97;9.87;;;;;;;4.84;61.23;101967.81;5013187;28;20744;-62
2024/01/30 10:32:57;;;;;;;18.87;9.10;;;;;;;4.88;61.41;101966.25;5017157;28;20209;-63
2024/01/30 10:35:25;;;;;;;14.33;8.27;;;;;;;4.91;60.93;101964.72;5011054;28;20211;-62
2024/01/30 10:37:56;;;;;;;14.53;9.23;;;;;;;4.95;60.54;101956.38;5011031;28;20662;-61
2024/01/30 10:40:28;;;;;;;14.33;8.10;;;;;;;5.00;60.46;101952.31;5021730;28;20227;-66
2024/01/30 10:43:02;;;;;;;15.10;8.63;;;;;;;5.04;60.17;101950.75;5013501;28;20211;-65
2024/01/30 10:45:32;;;;;;;13.83;7.77;;;;;;;5.07;60.23;101945.78;5015042;28;20202;-60
2024/01/30 10:48:03;;;;;;;14.67;8.43;;;;;;;5.12;60.02;101951.97;5010897;28;20625;-61
2024/01/30 10:50:33;;;;;;;19.03;8.73;;;;;;;5.17;60.23;101939.38;5008950;28;20203;-64
2024/01/30 10:53:05;;;;;;;15.93;8.47;;;;;;;5.23;59.91;101939.63;5009283;28;20203;-63
2024/01/30 10:55:35;;;;;;;18.23;8.33;;;;;;;5.25;59.10;101936.31;5011792;28;20199;-63
2024/01/30 10:58:05;;;;;;;13.97;8.90;;;;;;;5.27;58.75;101929.59;5012696;28;20214;-62
2024/01/30 11:00:34;;;;;;;16.47;9.23;;;;;;;5.36;58.17;101923.09;5008082;28;20952;-64
2024/01/30 11:03:03;;;;;;;17.77;9.80;;;;;;;5.39;58.13;101930.91;5005682;28;20241;-64
2024/01/30 11:05:31;;;;;;;16.77;9.47;;;;;;;5.43;58.87;101935.31;5019014;28;20545;-64
2024/01/30 11:08:11;;;;;;;16.67;8.80;;;;;;;5.50;58.99;101921.97;5006150;28;20726;-61
2024/01/30 11:10:46;;;;;;;14.27;8.67;;;;;;;5.54;58.78;101923.81;5003840;28;20936;-62
2024/01/30 11:13:16;;;;;;;15.27;9.47;;;;;;;5.58;58.55;101921.44;5009209;28;20207;-59
2024/01/30 11:15:44;;;;;;;16.37;9.17;;;;;;;5.62;58.70;101919.88;5020622;28;20206;-62
2024/01/30 11:18:12;;;;;;;15.77;9.73;;;;;;;5.66;58.57;101914.06;5005606;28;20293;-62
2024/01/30 11:20:48;;;;;;;15.07;9.40;;;;;;;5.68;58.77;101915.00;5013473;28;20199;-64
2024/01/30 11:23:16;;;;;;;15.80;9.67;;;;;;;5.73;58.57;101910.06;5006164;28;20229;-66
2024/01/30 11:25:45;;;;;;;15.37;9.20;;;;;;;5.75;58.18;101901.63;5008665;28;20213;-65
2024/01/30 11:28:18;;;;;;;19.13;9.60;;;;;;;5.77;58.33;101902.56;5001433;28;20734;-65